Time;durP1;ratioP1;P1;durP2;ratioP2;P2;SDS_P1;SDS_P2;PMS_P1;PMS_P2;Temp;Humidity;BMP_temperature;BMP_pressure;BME280_temperature;BME280_humidity;BME280_pressure;Samples;Min_cycle;Max_cycle;Signal;HPM_P1;HPM_P2
2021/05/29 00:00:16;;;;;;;7.00;2.10;;;;;;;9.50;69.22;101531.13;5070971;28;20606;-72
2021/05/29 00:02:43;;;;;;;193.93;111.60;;;;;;;9.51;69.35;101526.63;5069442;28;20197;-73
2021/05/29 00:05:12;;;;;;;7.93;4.87;;;;;;;9.55;69.57;101537.13;5070585;28;20201;-72
2021/05/29 00:07:41;;;;;;;5.23;4.07;;;;;;;9.60;69.86;101536.88;5070160;28;20209;-72
2021/05/29 00:10:09;;;;;;;7.37;4.37;;;;;;;9.64;71.08;101536.66;5070393;28;20201;-72
2021/05/29 00:12:37;;;;;;;4.07;3.67;;;;;;;9.72;71.34;101538.06;5067574;28;20200;-66
2021/05/29 00:15:07;;;;;;;3.47;2.70;;;;;;;9.75;70.77;101536.09;5070655;28;20259;-66
2021/05/29 00:17:35;;;;;;;3.23;2.50;;;;;;;9.81;70.53;101537.63;5071368;28;20201;-66
2021/05/29 00:20:03;;;;;;;4.07;1.90;;;;;;;9.82;70.20;101533.97;5069321;28;20204;-72
2021/05/29 00:22:31;;;;;;;1.87;1.73;;;;;;;9.90;70.17;101545.16;5070588;28;20581;-72
2021/05/29 00:24:59;;;;;;;1.80;1.70;;;;;;;9.92;70.14;101548.63;5070517;28;20195;-72
2021/05/29 00:27:27;;;;;;;2.70;1.90;;;;;;;9.94;69.72;101544.94;5070063;28;20200;-72
2021/05/29 00:29:55;;;;;;;3.50;2.37;;;;;;;9.98;69.87;101542.09;5068929;28;20194;-72
2021/05/29 00:32:22;;;;;;;2.30;1.97;;;;;;;9.99;69.99;101547.38;5069965;28;20202;-72
2021/05/29 00:34:50;;;;;;;2.43;2.23;;;;;;;10.04;69.79;101550.66;5069615;28;20225;-72
2021/05/29 00:37:17;;;;;;;2.93;2.30;;;;;;;10.09;69.81;101555.78;5069165;28;20211;-72
2021/05/29 00:39:45;;;;;;;2.43;1.97;;;;;;;10.09;70.79;101562.03;5070240;28;20198;-72
2021/05/29 00:42:13;;;;;;;3.37;2.03;;;;;;;10.07;70.92;101558.56;5069686;28;20193;-72
2021/05/29 00:44:49;;;;;;;2.03;1.83;;;;;;;10.06;71.13;101569.38;5068592;28;20537;-66
2021/05/29 00:47:19;;;;;;;2.20;2.00;;;;;;;9.99;70.25;101554.53;5065531;28;20252;-66
2021/05/29 00:49:47;;;;;;;2.70;2.10;;;;;;;10.05;69.89;101563.13;5069687;28;20212;-66
2021/05/29 00:52:16;;;;;;;2.47;1.90;;;;;;;10.04;70.07;101560.53;5068596;28;20721;-66
2021/05/29 00:54:45;;;;;;;2.23;1.93;;;;;;;10.07;69.75;101565.75;5067995;28;20217;-66
2021/05/29 00:57:15;;;;;;;3.13;2.27;;;;;;;10.03;70.25;101565.03;5068945;28;20404;-67
2021/05/29 00:59:43;;;;;;;4.37;1.80;;;;;;;10.02;70.74;101568.66;5068813;28;20198;-72
2021/05/29 01:02:12;;;;;;;2.57;2.13;;;;;;;10.03;70.22;101565.03;5062235;28;20569;-72
2021/05/29 01:04:40;;;;;;;4.60;1.93;;;;;;;10.06;70.32;101564.88;5074121;28;20571;-72
2021/05/29 01:07:11;;;;;;;2.40;1.90;;;;;;;10.07;70.01;101576.47;5067870;28;20204;-72
2021/05/29 01:09:40;;;;;;;2.33;1.77;;;;;;;10.08;69.68;101568.34;5069037;28;20554;-66
2021/05/29 01:12:09;;;;;;;1.77;1.60;;;;;;;9.95;70.53;101557.41;5068913;28;20197;-66
2021/05/29 01:14:46;;;;;;;8.93;2.10;;;;;;;9.94;71.61;101577.13;5068037;28;20229;-66
2021/05/29 01:17:15;;;;;;;3.37;1.90;;;;;;;10.00;71.28;101581.31;5069160;28;20639;-66
2021/05/29 01:19:43;;;;;;;2.17;1.80;;;;;;;10.03;70.39;101575.78;5067472;28;20209;-66
2021/05/29 01:22:12;;;;;;;2.63;2.00;;;;;;;9.73;70.87;101532.63;5068390;28;20692;-65
2021/05/29 01:24:40;;;;;;;3.23;1.87;;;;;;;10.07;70.39;101587.22;5067393;28;20228;-66
2021/05/29 01:27:08;;;;;;;3.63;2.00;;;;;;;9.84;70.67;101542.81;5068202;28;20204;-66
2021/05/29 01:29:36;;;;;;;2.00;1.80;;;;;;;10.14;70.58;101594.00;5059839;28;20184;-66
2021/05/29 01:32:06;;;;;;;3.57;2.10;;;;;;;10.14;70.18;101583.28;5068381;28;20190;-66
2021/05/29 01:34:37;;;;;;;3.53;1.83;;;;;;;10.21;69.38;101585.59;5068366;28;20239;-66
2021/05/29 01:37:05;;;;;;;2.93;1.83;;;;;;;10.01;69.70;101552.66;5069038;28;20641;-73
2021/05/29 01:39:33;;;;;;;1.73;1.63;;;;;;;10.31;69.72;101591.31;5069789;28;20193;-72
2021/05/29 01:42:01;;;;;;;1.80;1.70;;;;;;;10.32;69.34;101593.06;5062911;28;20298;-71
2021/05/29 01:44:29;;;;;;;2.40;1.97;;;;;;;10.24;70.57;101588.09;5066916;28;20208;-72
2021/05/29 01:46:57;;;;;;;2.30;2.10;;;;;;;9.62;69.70;101492.09;5068226;28;20205;-71
2021/05/29 01:49:25;;;;;;;1.53;1.40;;;;;;;10.15;69.50;101566.22;5069589;28;20196;-72
2021/05/29 01:51:53;;;;;;;2.00;1.80;;;;;;;10.29;69.44;101603.97;5066589;28;20201;-65
2021/05/29 01:54:21;;;;;;;2.40;1.80;;;;;;;10.34;69.48;101617.16;5067046;28;20517;-66
2021/05/29 01:56:49;;;;;;;2.47;1.50;;;;;;;10.32;69.84;101614.53;5068993;28;20194;-66
2021/05/29 01:59:17;;;;;;;2.33;1.90;;;;;;;10.26;69.38;101588.91;5068813;28;20716;-71
2021/05/29 02:01:45;;;;;;;1.67;1.57;;;;;;;10.37;68.94;101612.47;5066353;28;20220;-66
2021/05/29 02:04:12;;;;;;;1.60;1.50;;;;;;;10.37;68.77;101607.09;5067715;28;20660;-66
2021/05/29 02:06:40;;;;;;;3.63;1.60;;;;;;;10.38;68.73;101619.59;5080922;28;20208;-66
2021/05/29 02:09:08;;;;;;;1002.47;642.33;;;;;;;10.18;69.32;101587.53;5068607;28;20209;-66
2021/05/29 02:11:36;;;;;;;183.20;98.60;;;;;;;10.34;69.64;101623.38;5066930;28;20205;-66
2021/05/29 02:14:05;;;;;;;19.17;14.10;;;;;;;10.36;70.03;101621.47;5068728;28;20240;-66
2021/05/29 02:16:33;;;;;;;11.63;9.97;;;;;;;10.24;71.16;101604.22;5067437;28;20194;-66
2021/05/29 02:19:00;;;;;;;12.83;9.20;;;;;;;10.40;69.58;101623.06;5067556;28;20195;-65
2021/05/29 02:21:28;;;;;;;9.43;4.63;;;;;;;10.35;70.03;101618.88;5067656;28;20196;-66
2021/05/29 02:23:56;;;;;;;3.63;3.10;;;;;;;10.47;70.02;101642.41;5074566;28;20201;-67
2021/05/29 02:26:23;;;;;;;3.00;2.30;;;;;;;10.45;70.90;101636.25;5067919;28;20820;-66
2021/05/29 02:28:54;;;;;;;3.60;2.83;;;;;;;10.41;71.75;101640.06;5068450;28;20751;-71
2021/05/29 02:31:23;;;;;;;5.40;3.40;;;;;;;10.46;71.13;101646.91;5080790;28;20200;-72
2021/05/29 02:33:51;;;;;;;4.90;3.03;;;;;;;10.58;70.93;101646.25;5068152;28;20594;-72
2021/05/29 02:36:19;;;;;;;2.47;2.07;;;;;;;10.73;70.34;101647.28;5068561;28;20253;-66
2021/05/29 02:38:47;;;;;;;15.33;9.20;;;;;;;10.76;70.36;101641.72;5066816;28;20213;-67
2021/05/29 02:41:16;;;;;;;3.83;3.27;;;;;;;10.83;70.64;101653.00;5078448;28;20690;-66
2021/05/29 02:43:44;;;;;;;7.63;2.40;;;;;;;10.85;71.47;101651.97;5074005;28;20438;-72
2021/05/29 02:46:12;;;;;;;2.37;2.10;;;;;;;11.07;71.89;101648.13;5065666;28;20680;-72
2021/05/29 02:48:40;;;;;;;6.97;2.33;;;;;;;11.62;73.33;101650.34;5067099;28;20193;-72
2021/05/29 02:51:10;;;;;;;3.50;2.60;;;;;;;12.32;73.28;101649.81;5073082;28;20681;-73
2021/05/29 02:53:38;;;;;;;2.53;2.27;;;;;;;13.12;72.38;101651.09;5071786;28;20209;-73
2021/05/29 02:56:06;;;;;;;2.50;2.20;;;;;;;13.91;70.48;101662.13;5068379;28;20220;-73
2021/05/29 02:58:33;;;;;;;2.33;2.13;;;;;;;14.33;67.43;101654.75;5073873;28;20222;-72
2021/05/29 03:01:02;;;;;;;2.50;2.20;;;;;;;14.45;65.78;101650.41;5068710;28;20657;-73
2021/05/29 03:03:30;;;;;;;3.73;2.00;;;;;;;14.12;64.49;101653.56;5065890;28;20204;-72
2021/05/29 03:05:58;;;;;;;2.33;1.87;;;;;;;13.78;64.89;101660.34;5068631;28;20196;-72
2021/05/29 03:08:26;;;;;;;1.87;1.77;;;;;;;13.59;66.23;101652.59;5066855;28;20200;-73
2021/05/29 03:10:54;;;;;;;6.33;2.27;;;;;;;13.80;65.69;101663.81;5075561;28;20200;-72
2021/05/29 03:13:21;;;;;;;2.07;1.87;;;;;;;13.90;65.68;101665.78;5076515;28;20197;-72
2021/05/29 03:15:49;;;;;;;2.40;2.00;;;;;;;14.05;65.11;101668.41;5065711;28;20228;-73
2021/05/29 03:18:19;;;;;;;2.53;2.10;;;;;;;14.07;64.87;101672.75;5066135;28;20298;-66
2021/05/29 03:20:47;;;;;;;2.50;1.90;;;;;;;14.05;64.45;101676.53;5068031;28;20200;-67
2021/05/29 03:23:15;;;;;;;1.90;1.80;;;;;;;13.98;64.95;101660.75;5067526;28;20192;-66
2021/05/29 03:25:43;;;;;;;1.80;1.70;;;;;;;13.97;64.61;101680.63;5064011;28;20667;-72
2021/05/29 03:28:11;;;;;;;3.40;1.97;;;;;;;13.98;64.49;101676.06;5066049;28;20204;-72
2021/05/29 03:30:40;;;;;;;2.50;1.93;;;;;;;14.09;64.20;101678.06;5065982;28;20197;-66
2021/05/29 03:33:08;;;;;;;3.23;1.73;;;;;;;14.15;64.67;101683.06;5070300;28;20209;-66
2021/05/29 03:35:35;;;;;;;2.23;2.03;;;;;;;14.32;64.12;101693.56;5070067;28;20409;-67
2021/05/29 03:38:03;;;;;;;1.97;1.73;;;;;;;14.41;64.27;101687.56;5063065;28;20257;-72
2021/05/29 03:40:33;;;;;;;2.30;1.87;;;;;;;14.58;63.74;101684.56;5062963;28;20386;-72
2021/05/29 03:43:00;;;;;;;2.37;2.00;;;;;;;14.69;63.04;101683.81;5069999;28;20224;-72
2021/05/29 03:45:28;;;;;;;2.23;1.70;;;;;;;14.76;62.45;101695.09;5069765;28;20214;-72
2021/05/29 03:47:56;;;;;;;2.03;1.67;;;;;;;14.84;62.61;101695.41;5068945;28;20202;-72
2021/05/29 03:50:25;;;;;;;2.00;1.80;;;;;;;14.72;61.93;101682.75;5071102;28;20196;-72
2021/05/29 03:52:53;;;;;;;1.87;1.77;;;;;;;14.53;61.74;101669.66;5071169;28;20193;-72
2021/05/29 03:55:22;;;;;;;1.93;1.83;;;;;;;14.52;61.97;101690.41;5072165;28;20227;-72
2021/05/29 03:57:51;;;;;;;1.93;1.60;;;;;;;14.40;61.32;101677.72;5072197;28;20284;-72
2021/05/29 04:00:22;;;;;;;1.60;1.50;;;;;;;14.45;61.39;101705.31;5085376;28;20597;-72
2021/05/29 04:02:51;;;;;;;2.60;1.57;;;;;;;14.41;60.37;101717.28;5072132;28;20222;-72
2021/05/29 04:05:19;;;;;;;2.17;1.67;;;;;;;14.35;60.12;101720.38;5080273;28;20205;-72
2021/05/29 04:07:48;;;;;;;1.70;1.50;;;;;;;14.22;59.98;101712.25;5071017;28;20208;-72
2021/05/29 04:10:18;;;;;;;1.83;1.50;;;;;;;14.19;60.16;101703.50;5077831;28;20296;-72
2021/05/29 04:12:46;;;;;;;2.60;1.70;;;;;;;14.37;61.02;101723.84;5082772;28;20196;-72
2021/05/29 04:15:16;;;;;;;2.00;1.60;;;;;;;14.36;59.84;101734.75;5070098;28;20237;-72
2021/05/29 04:17:44;;;;;;;1.17;1.17;;;;;;;14.36;59.45;101726.66;5071195;28;20572;-67
2021/05/29 04:20:14;;;;;;;1.83;1.60;;;;;;;14.43;59.61;101731.59;5071361;28;20595;-66
2021/05/29 04:22:42;;;;;;;1.27;1.20;;;;;;;14.33;59.17;101732.25;5078390;28;20189;-66
2021/05/29 04:25:13;;;;;;;1.23;1.13;;;;;;;14.22;57.45;101741.97;5067004;28;20692;-67
2021/05/29 04:27:41;;;;;;;4.47;1.20;;;;;;;14.10;57.05;101732.00;5067870;28;20198;-67
2021/05/29 04:30:12;;;;;;;1.33;1.23;;;;;;;14.25;57.97;101740.91;5070289;28;20209;-66
2021/05/29 04:32:41;;;;;;;1.53;1.10;;;;;;;14.18;56.75;101745.84;5077259;28;20605;-67
2021/05/29 04:35:10;;;;;;;1.40;1.30;;;;;;;14.22;56.95;101749.22;5069937;28;20584;-66
2021/05/29 04:37:38;;;;;;;1.63;1.30;;;;;;;14.17;57.42;101754.06;5070337;28;20205;-67
2021/05/29 04:40:08;;;;;;;1.40;1.30;;;;;;;14.21;57.28;101750.19;5069804;28;20614;-66
2021/05/29 04:42:35;;;;;;;1.27;1.23;;;;;;;14.00;56.71;101714.66;5069502;28;20197;-67
2021/05/29 04:45:04;;;;;;;1.70;1.27;;;;;;;14.19;56.36;101763.78;5067186;28;20204;-72
2021/05/29 04:47:32;;;;;;;2.60;1.20;;;;;;;14.31;56.05;101764.81;5069728;28;20189;-73
2021/05/29 04:50:00;;;;;;;1.43;1.30;;;;;;;14.19;55.86;101752.13;5068121;28;20211;-72
2021/05/29 04:52:28;;;;;;;1.20;1.10;;;;;;;14.21;55.10;101769.09;5069379;28;20586;-72
2021/05/29 04:54:56;;;;;;;1.33;1.23;;;;;;;14.28;55.45;101773.13;5069044;28;20596;-72
2021/05/29 04:57:23;;;;;;;1.20;1.20;;;;;;;14.43;55.35;101776.69;5071231;28;20204;-72
2021/05/29 04:59:51;;;;;;;1.17;1.00;;;;;;;14.68;55.58;101775.84;5075264;28;20201;-73
2021/05/29 05:02:18;;;;;;;1.60;1.40;;;;;;;14.68;54.39;101779.41;5070527;28;20219;-73
2021/05/29 05:04:46;;;;;;;1.37;1.17;;;;;;;14.60;53.09;101743.94;5076771;28;20816;-67
2021/05/29 05:07:15;;;;;;;1.90;1.50;;;;;;;14.90;50.35;101781.53;5068209;28;20220;-67
2021/05/29 05:09:43;;;;;;;1.37;1.20;;;;;;;14.64;50.35;101796.81;5075613;28;20219;-67
2021/05/29 05:12:11;;;;;;;1.60;1.30;;;;;;;14.47;49.94;101797.13;5068960;28;20185;-72
2021/05/29 05:14:38;;;;;;;1.47;1.37;;;;;;;14.19;49.37;101795.34;5070009;28;20267;-72
2021/05/29 05:17:06;;;;;;;1.30;1.20;;;;;;;14.04;49.67;101799.03;5074296;28;20632;-72
2021/05/29 05:19:34;;;;;;;1.20;1.10;;;;;;;13.99;50.92;101802.91;5075528;28;20276;-71
2021/05/29 05:22:02;;;;;;;2.83;1.30;;;;;;;14.08;50.59;101804.16;5073599;28;20232;-65
2021/05/29 05:24:31;;;;;;;1.70;1.60;;;;;;;14.15;50.78;101801.94;5072472;28;20626;-66
2021/05/29 05:26:58;;;;;;;1.40;1.30;;;;;;;14.15;50.38;101802.78;5072022;28;20296;-67
2021/05/29 05:29:26;;;;;;;5.03;1.20;;;;;;;14.12;50.79;101778.69;5070876;28;20200;-66
2021/05/29 05:31:54;;;;;;;1.73;1.23;;;;;;;14.13;49.90;101790.34;5070115;28;20208;-67
2021/05/29 05:34:22;;;;;;;3.30;1.30;;;;;;;14.21;50.38;101805.09;5081343;28;20271;-67
2021/05/29 05:36:50;;;;;;;1.17;1.10;;;;;;;14.28;50.43;101792.91;5068464;28;20562;-66
2021/05/29 05:39:17;;;;;;;1.43;1.30;;;;;;;14.50;50.63;101814.00;5070412;28;20569;-66
2021/05/29 05:41:46;;;;;;;1.00;1.00;;;;;;;14.74;51.30;101825.00;5069427;28;20209;-66
2021/05/29 05:44:14;;;;;;;1.90;1.20;;;;;;;14.59;49.38;101801.69;5065111;28;20254;-66
2021/05/29 05:46:41;;;;;;;1.50;1.27;;;;;;;14.86;50.66;101823.28;5077326;28;20644;-66
2021/05/29 05:49:09;;;;;;;1.50;1.40;;;;;;;14.93;50.12;101826.44;5071967;28;20487;-66
2021/05/29 05:51:37;;;;;;;210.93;187.93;;;;;;;14.95;49.96;101832.59;5071750;28;20255;-67
2021/05/29 05:54:05;;;;;;;36.40;22.53;;;;;;;14.85;49.96;101835.06;5070096;28;20225;-66
2021/05/29 05:56:33;;;;;;;8.67;5.63;;;;;;;14.88;50.90;101841.13;5066996;28;20232;-67
2021/05/29 05:59:02;;;;;;;2.60;1.93;;;;;;;14.69;48.77;101832.53;5066133;28;20245;-66
2021/05/29 06:01:30;;;;;;;2.30;1.70;;;;;;;14.72;49.66;101835.06;5074598;28;20207;-66
2021/05/29 06:03:58;;;;;;;1.30;1.20;;;;;;;14.91;48.96;101838.22;5071267;28;20208;-67
2021/05/29 06:06:26;;;;;;;2.20;1.33;;;;;;;15.11;49.81;101833.28;5068576;28;20620;-66
2021/05/29 06:08:54;;;;;;;1.37;1.27;;;;;;;15.32;50.11;101836.34;5076898;28;20671;-66
2021/05/29 06:11:22;;;;;;;2.73;1.30;;;;;;;15.63;50.58;101852.19;5070479;28;20193;-66
2021/05/29 06:19:24;;;;;;;1.30;1.20;;;;;;;16.31;49.90;101859.88;5073872;28;20559;-72
2021/05/29 06:21:53;;;;;;;1.50;1.13;;;;;;;16.54;50.28;101860.88;5072367;28;20205;-72
2021/05/29 06:24:24;;;;;;;1.13;1.03;;;;;;;16.54;49.00;101854.59;5071267;28;20604;-72
2021/05/29 06:26:52;;;;;;;1.50;1.40;;;;;;;16.84;49.72;101857.72;5075427;28;20196;-73
2021/05/29 06:29:20;;;;;;;1.80;1.60;;;;;;;17.10;50.23;101863.84;5071210;28;20680;-73
2021/05/29 06:31:50;;;;;;;1.33;1.23;;;;;;;17.36;50.29;101870.81;5076122;28;20305;-72
2021/05/29 06:34:18;;;;;;;1.30;1.20;;;;;;;17.25;50.24;101812.91;5082492;28;20612;-73
2021/05/29 06:36:46;;;;;;;1.67;1.57;;;;;;;17.79;50.29;101867.47;5069132;28;20293;-73
2021/05/29 06:39:13;;;;;;;1.60;1.50;;;;;;;17.98;50.54;101866.84;5074906;28;20573;-73
2021/05/29 06:41:41;;;;;;;1.63;1.37;;;;;;;17.99;49.01;101868.56;5076900;28;20196;-72
2021/05/29 06:44:11;;;;;;;1.30;1.20;;;;;;;18.03;47.50;101863.75;5087844;28;20567;-73
2021/05/29 06:46:40;;;;;;;1.80;1.37;;;;;;;17.96;46.44;101866.97;5070564;28;20208;-72
2021/05/29 06:49:09;;;;;;;1.93;1.50;;;;;;;17.87;46.42;101875.88;5066800;28;20276;-72
2021/05/29 06:51:41;;;;;;;1.20;1.10;;;;;;;17.58;46.09;101864.56;5069441;28;20208;-72
2021/05/29 06:54:13;;;;;;;1.90;1.40;;;;;;;17.75;47.04;101870.53;5065396;28;20284;-72
2021/05/29 06:59:27;;;;;;;1.23;1.10;;;;;;;17.97;45.09;101875.97;5067535;28;20205;-66
2021/05/29 07:01:55;;;;;;;1.70;1.50;;;;;;;18.21;45.70;101881.28;5066281;28;20197;-67
2021/05/29 07:04:24;;;;;;;1.37;1.17;;;;;;;18.45;41.66;101892.03;5071998;28;20194;-72
2021/05/29 07:06:51;;;;;;;1.53;1.10;;;;;;;18.67;40.52;101881.09;5067419;28;20185;-72
2021/05/29 07:09:20;;;;;;;1.80;1.40;;;;;;;18.74;42.92;101885.06;5074030;28;20204;-72
2021/05/29 07:11:50;;;;;;;1.23;1.13;;;;;;;18.90;39.81;101882.75;5076527;28;20193;-72
2021/05/29 07:14:18;;;;;;;1.30;1.20;;;;;;;19.22;41.76;101888.16;5079913;28;20417;-72
2021/05/29 07:16:50;;;;;;;1.93;1.40;;;;;;;19.62;41.19;101859.38;5056824;28;20414;-72
2021/05/29 07:19:19;;;;;;;1.30;1.20;;;;;;;19.85;39.00;101891.75;5067545;28;20225;-71
2021/05/29 07:21:48;;;;;;;1.30;1.20;;;;;;;19.92;39.59;101893.97;5056895;28;20211;-71
2021/05/29 07:24:16;;;;;;;1.30;1.20;;;;;;;20.02;39.13;101898.44;5066878;28;20212;-72
2021/05/29 07:26:43;;;;;;;1.20;1.10;;;;;;;20.38;40.29;101899.72;5075068;28;20660;-72
2021/05/29 07:29:11;;;;;;;1.10;1.10;;;;;;;20.58;36.65;101889.75;5073067;28;20215;-72
2021/05/29 07:31:39;;;;;;;2.20;1.27;;;;;;;20.68;37.67;101885.16;5079250;28;20584;-72
2021/05/29 07:34:06;;;;;;;2.20;1.27;;;;;;;20.76;39.03;101893.50;5078548;28;20623;-72
2021/05/29 07:36:38;;;;;;;1.10;1.10;;;;;;;20.32;35.58;101886.66;5073833;28;20308;-71
2021/05/29 07:39:07;;;;;;;1.17;1.07;;;;;;;21.01;36.93;101896.69;5052776;28;20198;-71
2021/05/29 07:41:35;;;;;;;1.40;1.30;;;;;;;20.34;35.32;101821.88;5069799;28;20535;-72
2021/05/29 07:44:04;;;;;;;2.17;1.40;;;;;;;20.65;36.66;101896.38;5070007;28;20285;-71
2021/05/29 07:46:33;;;;;;;1.13;1.10;;;;;;;20.32;32.72;101904.88;5072149;28;20281;-71
2021/05/29 07:49:01;;;;;;;2.10;1.10;;;;;;;20.53;35.61;101900.25;5071944;28;20231;-72
2021/05/29 07:51:29;;;;;;;1.00;1.00;;;;;;;20.76;34.84;101903.56;5076547;28;20201;-71
2021/05/29 07:53:57;;;;;;;2.20;1.30;;;;;;;20.38;35.01;101905.19;5067435;28;20197;-72
2021/05/29 07:56:27;;;;;;;1.37;1.27;;;;;;;20.61;35.81;101908.59;5071792;28;20213;-72
2021/05/29 07:58:55;;;;;;;1.50;1.17;;;;;;;20.64;35.71;101911.03;5071224;28;20215;-72
2021/05/29 08:01:23;;;;;;;2.37;1.10;;;;;;;20.83;33.85;101909.34;5068492;28;20205;-72
2021/05/29 08:03:51;;;;;;;2.47;1.53;;;;;;;20.89;35.22;101906.03;5075489;28;20426;-70
2021/05/29 08:06:20;;;;;;;2.13;1.20;;;;;;;21.34;34.82;101909.94;5066053;28;20193;-70
2021/05/29 08:08:49;;;;;;;2.73;1.30;;;;;;;21.31;34.65;101860.19;5069587;28;20200;-71
2021/05/29 08:11:20;;;;;;;1.87;1.10;;;;;;;22.07;35.58;101912.13;5074565;28;20201;-71
2021/05/29 08:13:50;;;;;;;1.70;1.20;;;;;;;21.96;28.87;101922.19;5075291;28;20233;-71
2021/05/29 08:16:19;;;;;;;2.10;1.00;;;;;;;21.88;32.81;101902.94;5073807;28;20205;-71
2021/05/29 08:18:47;;;;;;;1.53;1.10;;;;;;;22.45;33.85;101903.72;5078177;28;20683;-72
2021/05/29 08:21:15;;;;;;;3.17;1.07;;;;;;;22.81;33.75;101917.50;5077885;28;20199;-71
2021/05/29 08:23:43;;;;;;;3.03;1.07;;;;;;;21.89;30.13;101871.81;5074980;28;20648;-71
2021/05/29 08:26:11;;;;;;;3.03;1.50;;;;;;;22.40;32.47;101911.53;5071678;28;20193;-71
2021/05/29 08:28:38;;;;;;;4.60;1.07;;;;;;;22.65;30.23;101917.28;5074158;28;20620;-71
2021/05/29 08:31:07;;;;;;;0.93;0.93;;;;;;;22.09;29.49;101915.56;5091308;28;20210;-71
2021/05/29 08:33:35;;;;;;;1.73;1.10;;;;;;;21.86;28.88;101915.91;5079881;28;20538;-71
2021/05/29 08:36:03;;;;;;;4.33;1.27;;;;;;;21.66;29.76;101930.63;5069891;28;20201;-71
2021/05/29 08:38:31;;;;;;;2.40;1.23;;;;;;;21.60;30.25;101923.00;5068443;28;20241;-71
2021/05/29 08:40:59;;;;;;;1.30;1.03;;;;;;;21.81;30.70;101931.91;5070618;28;20209;-71
2021/05/29 08:43:27;;;;;;;1.97;1.20;;;;;;;21.86;30.68;101937.78;5080555;28;20690;-72
2021/05/29 08:45:54;;;;;;;1.23;1.13;;;;;;;21.84;30.51;101934.34;5064387;28;20202;-65
2021/05/29 08:48:23;;;;;;;2.83;1.00;;;;;;;22.48;30.71;101929.94;5070765;28;20201;-67
2021/05/29 08:53:36;;;;;;;1.20;1.07;;;;;;;21.95;29.30;101931.41;5069985;28;20209;-66
2021/05/29 08:56:04;;;;;;;1.87;1.13;;;;;;;22.16;31.88;101938.59;5072317;28;20220;-66
2021/05/29 08:58:32;;;;;;;2.17;1.07;;;;;;;22.30;30.95;101903.34;5068822;28;20223;-66
2021/05/29 09:01:02;;;;;;;1.20;1.20;;;;;;;22.19;30.57;101952.81;5070148;28;20262;-65
2021/05/29 09:03:48;;;;;;;1.10;1.00;;;;;;;21.86;28.45;101948.72;5074435;28;20200;-65
2021/05/29 09:06:19;;;;;;;1.00;1.00;;;;;;;21.90;29.90;101944.69;5078477;28;20196;-66
2021/05/29 09:08:52;;;;;;;0.90;0.90;;;;;;;21.92;27.85;101953.59;5062010;28;20198;-66
2021/05/29 09:11:47;;;;;;;1.20;1.00;;;;;;;22.30;31.25;101951.75;5069420;28;20208;-66
2021/05/29 09:14:38;;;;;;;2.23;1.27;;;;;;;22.43;28.41;101951.44;5067741;28;20624;-67
2021/05/29 09:17:18;;;;;;;2.20;1.10;;;;;;;22.81;27.95;101950.38;5068464;28;20221;-67
2021/05/29 09:20:07;;;;;;;1.00;1.00;;;;;;;22.49;26.31;101956.31;5068970;28;20193;-67
2021/05/29 09:22:37;;;;;;;1.30;1.20;;;;;;;22.28;29.48;101956.53;5080099;28;20208;-67
2021/05/29 09:25:10;;;;;;;5.13;1.20;;;;;;;22.22;27.14;101966.22;5069228;28;20208;-67
2021/05/29 09:27:49;;;;;;;3.60;1.20;;;;;;;21.95;28.70;101966.97;5065620;28;20912;-68
2021/05/29 09:30:34;;;;;;;1.07;0.97;;;;;;;22.52;29.82;101976.03;5072028;28;20557;-67
2021/05/29 09:33:11;;;;;;;2.10;1.00;;;;;;;22.88;30.90;101963.31;5081335;28;20196;-67
2021/05/29 09:35:40;;;;;;;1.30;1.20;;;;;;;23.61;31.37;101967.81;5069790;28;20786;-67
2021/05/29 09:38:09;;;;;;;1.07;1.07;;;;;;;24.15;30.24;101975.75;5069864;28;20248;-72
2021/05/29 09:40:36;;;;;;;0.90;0.90;;;;;;;24.49;30.06;101977.69;5062768;28;20201;-72
2021/05/29 09:43:07;;;;;;;2.47;1.17;;;;;;;24.78;29.37;101977.28;5069415;28;20579;-72
2021/05/29 09:45:37;;;;;;;1.00;1.00;;;;;;;24.84;28.45;101981.28;5068286;28;20198;-72
2021/05/29 09:48:25;;;;;;;1.33;1.00;;;;;;;25.15;28.33;101985.16;5073469;28;20211;-72
2021/05/29 09:51:05;;;;;;;1.20;1.10;;;;;;;24.71;28.35;101954.25;5064258;28;20218;-67
2021/05/29 09:53:34;;;;;;;1.00;1.00;;;;;;;25.27;28.44;101977.44;5069608;28;20197;-73
2021/05/29 09:56:03;;;;;;;1.80;0.80;;;;;;;25.27;27.75;101971.94;5079485;28;20699;-71
2021/05/29 09:59:06;;;;;;;1.00;1.00;;;;;;;25.35;29.10;101970.03;5076470;28;20216;-72
2021/05/29 10:01:40;;;;;;;0.95;0.93;;;;;;;25.33;28.37;101974.00;5030071;28;20212;-72
2021/05/29 10:04:09;;;;;;;2.35;1.10;;;;;;;25.86;28.57;101972.66;5027581;28;20211;-72
2021/05/29 10:06:37;;;;;;;1.20;1.10;;;;;;;26.01;28.69;101981.91;5047985;28;20209;-72
2021/05/29 10:09:10;;;;;;;1.23;1.10;;;;;;;26.17;27.05;101979.16;5072186;28;20200;-72
2021/05/29 10:11:38;;;;;;;0.98;0.98;;;;;;;25.74;28.27;101935.53;5079217;28;20645;-72
2021/05/29 10:14:07;;;;;;;1.08;1.08;;;;;;;25.58;25.64;101973.00;5070622;28;20642;-66
2021/05/29 10:16:37;;;;;;;2.92;1.00;;;;;;;25.86;28.17;101981.78;5073510;28;20193;-66
2021/05/29 10:19:07;;;;;;;1.25;1.00;;;;;;;26.02;27.16;101983.66;5071821;28;20220;-67
2021/05/29 10:21:37;;;;;;;1.35;1.20;;;;;;;25.24;26.42;101980.53;5076917;28;20413;-67
2021/05/29 10:24:07;;;;;;;2.58;1.00;;;;;;;24.89;25.95;101984.38;5071880;28;20201;-67
2021/05/29 10:26:35;;;;;;;1.10;1.10;;;;;;;25.04;27.73;101974.47;5066138;28;20283;-66
2021/05/29 10:29:03;;;;;;;1.20;1.10;;;;;;;25.07;27.68;101976.88;5071975;28;20518;-67
2021/05/29 10:31:34;;;;;;;1.15;0.93;;;;;;;25.62;29.36;101963.34;5066294;28;20204;-66
2021/05/29 10:34:06;;;;;;;1.20;1.17;;;;;;;25.64;28.97;101972.28;5074998;28;20750;-67
2021/05/29 10:36:40;;;;;;;1.15;1.10;;;;;;;25.85;28.52;101970.94;5071174;28;20194;-66
2021/05/29 10:39:10;;;;;;;2.20;1.20;;;;;;;26.23;28.43;101961.03;5070505;28;20231;-66
2021/05/29 10:41:53;;;;;;;2.03;1.03;;;;;;;25.85;23.31;101968.19;5068499;28;20198;-66
2021/05/29 10:44:37;;;;;;;1.75;1.45;;;;;;;25.66;26.80;101966.63;5072337;28;20844;-66
2021/05/29 10:47:09;;;;;;;2.38;1.35;;;;;;;25.79;24.86;101967.00;5070058;28;20209;-66
2021/05/29 10:49:55;;;;;;;2.55;1.08;;;;;;;25.78;24.17;101936.91;5066541;28;20733;-66
2021/05/29 10:52:52;;;;;;;0.88;0.88;;;;;;;25.35;24.73;101974.69;5067956;28;20197;-65
2021/05/29 10:55:25;;;;;;;1.00;1.00;;;;;;;24.80;25.17;101978.00;5073965;28;20197;-66
2021/05/29 10:57:59;;;;;;;2.55;1.00;;;;;;;24.49;27.40;101952.09;5074389;28;20209;-66
2021/05/29 11:00:57;;;;;;;1.50;1.10;;;;;;;24.90;28.59;101975.97;5057902;28;20198;-66
2021/05/29 11:03:28;;;;;;;1.73;1.30;;;;;;;24.59;28.13;101970.19;5067901;28;20201;-66
2021/05/29 11:06:01;;;;;;;2.70;1.10;;;;;;;25.02;28.10;101969.13;5069179;28;20228;-67
2021/05/29 11:09:02;;;;;;;3.10;1.13;;;;;;;25.40;29.34;101969.53;5065428;28;20579;-67
2021/05/29 11:11:55;;;;;;;2.10;1.30;;;;;;;25.82;27.94;101969.41;5039100;28;20387;-66
2021/05/29 11:14:25;;;;;;;2.10;1.40;;;;;;;26.01;28.18;101973.66;5066604;28;20229;-67
2021/05/29 11:17:09;;;;;;;1.17;1.07;;;;;;;26.03;27.39;101977.13;5071174;28;20220;-65
2021/05/29 11:19:39;;;;;;;1.00;1.00;;;;;;;26.20;28.22;101959.50;5061532;28;20197;-65
2021/05/29 11:22:09;;;;;;;1.20;1.15;;;;;;;26.22;27.56;101976.72;5066763;28;20587;-65
2021/05/29 11:24:40;;;;;;;1.67;1.10;;;;;;;25.89;26.26;101940.13;5073455;28;20199;-66
2021/05/29 11:27:10;;;;;;;1.30;1.17;;;;;;;26.26;28.25;101975.31;5067672;28;20219;-72
2021/05/29 11:29:52;;;;;;;1.45;1.20;;;;;;;26.56;26.71;101970.09;5072807;28;20192;-72
2021/05/29 11:32:43;;;;;;;1.00;1.00;;;;;;;26.21;27.05;101969.50;5069382;28;20205;-72
2021/05/29 11:35:26;;;;;;;1.50;1.40;;;;;;;26.50;27.16;101965.28;5068097;28;20197;-72
2021/05/29 11:38:06;;;;;;;2.05;1.25;;;;;;;26.31;26.52;101969.28;5067465;28;20573;-72
2021/05/29 11:40:49;;;;;;;1.75;1.00;;;;;;;25.74;25.75;101954.78;5068211;28;20199;-66
2021/05/29 11:43:20;;;;;;;1.13;1.02;;;;;;;25.48;27.01;101969.56;5063973;28;20209;-66
2021/05/29 11:45:56;;;;;;;3.83;1.20;;;;;;;25.35;27.05;101958.19;5066399;28;20202;-66
2021/05/29 11:48:31;;;;;;;2.40;1.30;;;;;;;25.81;28.05;101964.06;5068500;28;20197;-70